This is the latest recevied weather packets stored in our database for station/object AC0MR. If no packets are shown the sender has not sent any weather packets the latest 10 day(s).
| Time | Temp. | Humidity | Pressure | Rain* | Wind** | Luminosity | Snow |
|---|---|---|---|---|---|---|---|
| 1777122918 | 10.56° C | 82% | 1014.4 hPa | 0 mm | - | 247 W/m² | - |
| 1777122318 | 10° C | 83% | 1014.3 hPa | 0 mm | - | 205 W/m² | - |
| 1777121718 | 8.89° C | 85% | 1014.2 hPa | 0 mm | - | 37 W/m² | - |
| 1777121118 | 8.33° C | 87% | 1014 hPa | 0 mm | - | 35 W/m² | - |
| 1777120518 | 7.78° C | 88% | 1014 hPa | 0 mm | - | 33 W/m² | - |
| 1777119918 | 7.22° C | 89% | 1014 hPa | 0 mm | - | 31 W/m² | - |
| 1777119318 | 6.67° C | 90% | 1014 hPa | 0 mm | - | 28 W/m² | - |
| 1777118718 | 6.11° C | 90% | 1014 hPa | 0 mm | - | 25 W/m² | - |
| 1777118118 | 5.56° C | 89% | 1013.5 hPa | 0 mm | - | 23 W/m² | - |
| 1777117518 | 5.56° C | 89% | 1013.5 hPa | 0 mm | - | 18 W/m² | - |
| 1777116918 | 5.56° C | 89% | 1013.6 hPa | 0 mm | - | 14 W/m² | - |
| 1777116318 | 5° C | 89% | 1013.4 hPa | 0 mm | - | 10 W/m² | - |
| 1777115718 | 5° C | 89% | 1013.5 hPa | 0 mm | - | 4 W/m² | - |
| 1777115118 | 5° C | 88% | 1013.4 hPa | 0 mm | - | 0 W/m² | - |
| 1777114518 | 5° C | 88% | 1013.3 hPa | 0 mm | - | 0 W/m² | - |
| 1777113918 | 5.56° C | 88% | 1013.3 hPa | 0 mm | - | 0 W/m² | - |
| 1777113318 | 5.56° C | 88% | 1013.5 hPa | 0 mm | - | 0 W/m² | - |
| 1777112718 | 5.56° C | 88% | 1013.5 hPa | 0 mm | - | 0 W/m² | - |
| 1777112118 | 5.56° C | 88% | 1013.3 hPa | 0 mm | - | 0 W/m² | - |
| 1777111518 | 5.56° C | 88% | 1013.5 hPa | 0 mm | - | 0 W/m² | - |
| 1777110918 | 5.56° C | 88% | 1013.7 hPa | 0 mm | - | 0 W/m² | - |
| 1777110318 | 6.11° C | 88% | 1013.7 hPa | 0 mm | - | 0 W/m² | - |
| 1777109718 | 6.11° C | 88% | 1013.7 hPa | 0 mm | - | 0 W/m² | - |
| 1777109118 | 6.11° C | 88% | 1013.7 hPa | 0 mm | - | 0 W/m² | - |
| 1777108518 | 6.11° C | 88% | 1013.6 hPa | 0 mm | - | 0 W/m² | - |
* Rain latest hour (hover to see other rain measurements)
** Current wind speed in m/s (hover to see current wind gust speed)